EWG40P EDDH-ESSA
Flight info
| Callsign | EWG40P |
|---|---|
| Flight time | N/A |
| Altitude | 37000 |
| Route | LUGEG3G/33 LUGEG P605 MEGAR DCT KUBIS DCT MIKNA N851 PELUP Z226 NILUG |
| Aircraft | A320/M-SDE3FGHIRWY/LB1 |
Departure
| Time | N/A |
|---|---|
| Airport | Hamburg Helmut Schmidt Airport (EDDH) |
Arrival
| Time | 2026-05-07 18:13 |
|---|---|
| Airport | Stockholm-Arlanda Airport (ESSA) |
| Time | Latitude | Longitude | Altitude | Speed | Heading |
|---|---|---|---|---|---|
| 2026-05-07 17:48 | 58.29688 | 16.97966 | 30296 ft | 445 kts | 38° |
| 2026-05-07 17:48 | 58.31947 | 17.01841 | 29636 ft | 429 kts | 38° |
| 2026-05-07 17:48 | 58.34118 | 17.05576 | 29083 ft | 413 kts | 38° |
| 2026-05-07 17:49 | 58.36209 | 17.09177 | 28534 ft | 401 kts | 38° |
| 2026-05-07 17:49 | 58.38275 | 17.12729 | 27995 ft | 400 kts | 38° |
| 2026-05-07 17:49 | 58.40350 | 17.16285 | 27448 ft | 399 kts | 38° |
| 2026-05-07 17:49 | 58.42399 | 17.19802 | 26946 ft | 397 kts | 38° |
| 2026-05-07 17:50 | 58.44443 | 17.23314 | 26440 ft | 394 kts | 37° |
| 2026-05-07 17:50 | 58.46480 | 17.26826 | 25907 ft | 393 kts | 37° |
| 2026-05-07 17:50 | 58.48501 | 17.30324 | 25412 ft | 391 kts | 37° |
| 2026-05-07 17:50 | 58.50508 | 17.33806 | 24921 ft | 389 kts | 37° |
| 2026-05-07 17:51 | 58.52507 | 17.37282 | 24440 ft | 387 kts | 38° |
| 2026-05-07 17:51 | 58.54495 | 17.40744 | 23962 ft | 385 kts | 38° |
| 2026-05-07 17:51 | 58.56472 | 17.44198 | 23457 ft | 384 kts | 38° |
| 2026-05-07 17:51 | 58.58433 | 17.47633 | 22966 ft | 380 kts | 38° |
| 2026-05-07 17:52 | 58.60374 | 17.51035 | 22522 ft | 377 kts | 38° |
| 2026-05-07 17:52 | 58.62298 | 17.54409 | 22066 ft | 374 kts | 38° |
| 2026-05-07 17:52 | 58.64215 | 17.57768 | 21605 ft | 371 kts | 38° |
| 2026-05-07 17:52 | 58.66117 | 17.61103 | 21136 ft | 370 kts | 38° |
| 2026-05-07 17:53 | 58.68004 | 17.64422 | 20681 ft | 368 kts | 38° |
| 2026-05-07 17:53 | 58.69894 | 17.67752 | 20185 ft | 368 kts | 38° |
| 2026-05-07 17:53 | 58.71780 | 17.71078 | 19689 ft | 368 kts | 38° |
| 2026-05-07 17:53 | 58.73668 | 17.74413 | 19203 ft | 367 kts | 38° |
| 2026-05-07 17:54 | 58.75546 | 17.77738 | 18723 ft | 367 kts | 38° |
| 2026-05-07 17:54 | 58.77429 | 17.81084 | 18200 ft | 368 kts | 39° |
| 2026-05-07 17:54 | 58.79305 | 17.84418 | 17697 ft | 366 kts | 39° |
| 2026-05-07 17:54 | 58.81209 | 17.87617 | 17219 ft | 361 kts | 32° |
| 2026-05-07 17:55 | 58.83332 | 17.90113 | 16884 ft | 355 kts | 21° |
| 2026-05-07 17:55 | 58.85560 | 17.92186 | 16629 ft | 355 kts | 21° |
| 2026-05-07 17:55 | 58.87781 | 17.94274 | 16350 ft | 354 kts | 22° |
| 2026-05-07 17:55 | 58.89988 | 17.96364 | 16066 ft | 352 kts | 22° |
| 2026-05-07 17:56 | 58.92182 | 17.98449 | 15822 ft | 351 kts | 21° |
| 2026-05-07 17:56 | 58.94356 | 18.00520 | 15529 ft | 348 kts | 21° |
| 2026-05-07 17:56 | 58.96526 | 18.02586 | 15251 ft | 346 kts | 21° |
| 2026-05-07 17:56 | 58.98688 | 18.04642 | 14976 ft | 344 kts | 21° |
| 2026-05-07 17:57 | 59.00828 | 18.06677 | 14703 ft | 343 kts | 21° |
| 2026-05-07 17:57 | 59.02240 | 18.08024 | 14524 ft | 341 kts | 22° |
| 2026-05-07 17:57 | 59.05090 | 18.10743 | 14166 ft | 339 kts | 22° |
| 2026-05-07 17:57 | 59.07197 | 18.12756 | 13890 ft | 337 kts | 22° |
| 2026-05-07 17:58 | 59.09340 | 18.14517 | 13603 ft | 331 kts | 13° |
| 2026-05-07 17:58 | 59.11570 | 18.15409 | 13353 ft | 325 kts | 1° |
| 2026-05-07 17:58 | 59.13817 | 18.15679 | 13102 ft | 323 kts | 359° |
| 2026-05-07 17:58 | 59.16060 | 18.15931 | 12845 ft | 321 kts | 359° |
| 2026-05-07 17:59 | 59.18278 | 18.16188 | 12594 ft | 320 kts | 359° |
| 2026-05-07 17:59 | 59.20493 | 18.16452 | 12355 ft | 318 kts | 360° |
| 2026-05-07 17:59 | 59.22696 | 18.16735 | 12090 ft | 317 kts | 2° |
| 2026-05-07 17:59 | 59.24869 | 18.17432 | 11678 ft | 315 kts | 6° |
| 2026-05-07 18:00 | 59.27019 | 18.18070 | 11257 ft | 312 kts | 4° |
| 2026-05-07 18:00 | 59.29165 | 18.18635 | 10837 ft | 309 kts | 4° |
| 2026-05-07 18:00 | 59.31280 | 18.19182 | 10499 ft | 304 kts | 4° |
| 2026-05-07 18:00 | 59.33325 | 18.19713 | 10370 ft | 288 kts | 4° |
| 2026-05-07 18:01 | 59.35262 | 18.20226 | 10049 ft | 277 kts | 4° |
| 2026-05-07 18:01 | 59.37163 | 18.20726 | 9510 ft | 273 kts | 4° |
| 2026-05-07 18:01 | 59.39037 | 18.21198 | 9162 ft | 271 kts | 4° |
| 2026-05-07 18:01 | 59.40914 | 18.21653 | 9136 ft | 272 kts | 4° |
| 2026-05-07 18:02 | 59.44679 | 18.22565 | 9137 ft | 272 kts | 4° |
| 2026-05-07 18:02 | 59.46555 | 18.23020 | 9141 ft | 272 kts | 4° |
| 2026-05-07 18:02 | 59.48438 | 18.23347 | 9144 ft | 271 kts | 356° |
| 2026-05-07 18:03 | 59.50313 | 18.23172 | 8833 ft | 268 kts | 353° |
| 2026-05-07 18:03 | 59.52164 | 18.22891 | 8400 ft | 268 kts | 353° |
| 2026-05-07 18:03 | 59.54015 | 18.22579 | 7992 ft | 266 kts | 353° |
| 2026-05-07 18:03 | 59.55860 | 18.22251 | 7574 ft | 265 kts | 353° |
| 2026-05-07 18:04 | 59.57674 | 18.21911 | 7371 ft | 256 kts | 353° |
| 2026-05-07 18:04 | 59.59423 | 18.21576 | 7140 ft | 249 kts | 353° |
| 2026-05-07 18:04 | 59.61144 | 18.21237 | 6793 ft | 247 kts | 353° |
| 2026-05-07 18:04 | 59.62849 | 18.20888 | 6429 ft | 246 kts | 353° |
| 2026-05-07 18:05 | 59.64541 | 18.20535 | 6047 ft | 244 kts | 353° |
| 2026-05-07 18:05 | 59.66233 | 18.20176 | 5622 ft | 244 kts | 353° |
| 2026-05-07 18:05 | 59.67916 | 18.19809 | 5315 ft | 241 kts | 353° |
| 2026-05-07 18:05 | 59.69553 | 18.19441 | 5071 ft | 234 kts | 353° |
| 2026-05-07 18:06 | 59.71157 | 18.19077 | 4742 ft | 232 kts | 353° |
| 2026-05-07 18:06 | 59.72766 | 18.18706 | 4377 ft | 232 kts | 353° |
| 2026-05-07 18:06 | 59.74364 | 18.18331 | 4004 ft | 232 kts | 353° |
| 2026-05-07 18:06 | 59.75959 | 18.17950 | 3692 ft | 229 kts | 353° |
| 2026-05-07 18:07 | 59.77525 | 18.17572 | 3476 ft | 224 kts | 353° |
| 2026-05-07 18:07 | 59.79059 | 18.17192 | 3202 ft | 222 kts | 353° |
| 2026-05-07 18:07 | 59.80556 | 18.16510 | 2922 ft | 222 kts | 334° |
| 2026-05-07 18:07 | 59.81680 | 18.14432 | 2615 ft | 225 kts | 299° |
| 2026-05-07 18:08 | 59.82127 | 18.11549 | 2495 ft | 218 kts | 281° |
| 2026-05-07 18:08 | 59.82354 | 18.08695 | 2493 ft | 201 kts | 276° |
| 2026-05-07 18:08 | 59.82162 | 18.06078 | 2494 ft | 186 kts | 238° |
| 2026-05-07 18:08 | 59.81341 | 18.04178 | 2540 ft | 181 kts | 221° |
| 2026-05-07 18:09 | 59.80398 | 18.02538 | 2539 ft | 179 kts | 219° |
| 2026-05-07 18:09 | 59.79373 | 18.01242 | 2510 ft | 173 kts | 198° |
| 2026-05-07 18:09 | 59.78219 | 18.00746 | 2509 ft | 172 kts | 189° |
| 2026-05-07 18:09 | 59.77061 | 18.00325 | 2486 ft | 160 kts | 189° |
| 2026-05-07 18:10 | 59.76021 | 17.99952 | 2485 ft | 149 kts | 189° |
| 2026-05-07 18:10 | 59.74978 | 17.99565 | 2183 ft | 152 kts | 190° |
| 2026-05-07 18:10 | 59.73960 | 17.99188 | 2022 ft | 146 kts | 189° |
| 2026-05-07 18:10 | 59.72928 | 17.98806 | 1802 ft | 150 kts | 190° |
| 2026-05-07 18:11 | 59.71921 | 17.98438 | 1567 ft | 145 kts | 188° |
| 2026-05-07 18:11 | 59.71268 | 17.98206 | 1378 ft | 141 kts | 189° |
| 2026-05-07 18:11 | 59.70000 | 17.97736 | 1114 ft | 137 kts | 189° |
| 2026-05-07 18:11 | 59.69075 | 17.97406 | 953 ft | 134 kts | 187° |
| 2026-05-07 18:12 | 59.68156 | 17.97069 | 777 ft | 134 kts | 187° |
| 2026-05-07 18:12 | 59.67234 | 17.96736 | 619 ft | 135 kts | 188° |
| 2026-05-07 18:12 | 59.66309 | 17.96392 | 461 ft | 136 kts | 187° |
| 2026-05-07 18:12 | 59.65376 | 17.96058 | 285 ft | 138 kts | 186° |
| 2026-05-07 18:13 | 59.64425 | 17.95730 | 120 ft | 133 kts | 186° |
| 2026-05-07 18:13 | 59.63626 | 17.95444 | 118 ft | 98 kts | 192° |
| 2026-05-07 18:13 | 59.63128 | 17.95254 | 129 ft | 54 kts | 194° |
| 2026-05-07 18:13 | 59.62897 | 17.94987 | 137 ft | 20 kts | 220° |
| 2026-05-07 18:14 | 59.62845 | 17.94874 | 137 ft | 0 kts | 264° |
| 2026-05-07 18:14 | 59.62844 | 17.94853 | 137 ft | 6 kts | 264° |
| 2026-05-07 18:14 | 59.62907 | 17.94760 | 137 ft | 18 kts | 1° |
| 2026-05-07 18:14 | 59.63048 | 17.94812 | 132 ft | 24 kts | 9° |
| 2026-05-07 18:15 | 59.63228 | 17.94881 | 126 ft | 29 kts | 11° |
| 2026-05-07 18:15 | 59.63438 | 17.94959 | 120 ft | 33 kts | 11° |
| 2026-05-07 18:15 | 59.63664 | 17.95040 | 113 ft | 27 kts | 11° |
| 2026-05-07 18:15 | 59.63810 | 17.95094 | 110 ft | 22 kts | 10° |
| 2026-05-07 18:16 | 59.63947 | 17.95141 | 109 ft | 20 kts | 10° |
| 2026-05-07 18:16 | 59.64098 | 17.95197 | 108 ft | 23 kts | 11° |
| 2026-05-07 18:16 | 59.64199 | 17.95234 | 107 ft | 11 kts | 10° |
| 2026-05-07 18:16 | 59.64291 | 17.95268 | 106 ft | 17 kts | 11° |
| 2026-05-07 18:17 | 59.64436 | 17.95321 | 105 ft | 24 kts | 11° |
| 2026-05-07 18:17 | 59.64616 | 17.95385 | 105 ft | 28 kts | 10° |
| 2026-05-07 18:17 | 59.64754 | 17.95436 | 106 ft | 17 kts | 11° |
| 2026-05-07 18:17 | 59.64881 | 17.95484 | 108 ft | 21 kts | 11° |
| 2026-05-07 18:18 | 59.65033 | 17.95513 | 114 ft | 23 kts | 354° |
| 2026-05-07 18:18 | 59.65193 | 17.95434 | 121 ft | 25 kts | 345° |
| 2026-05-07 18:18 | 59.65367 | 17.95342 | 126 ft | 25 kts | 345° |
| 2026-05-07 18:18 | 59.65545 | 17.95250 | 125 ft | 27 kts | 346° |
| 2026-05-07 18:19 | 59.65715 | 17.95154 | 127 ft | 19 kts | 344° |
| 2026-05-07 18:19 | 59.65741 | 17.95134 | 125 ft | 5 kts | 324° |
| 2026-05-07 18:19 | 59.65741 | 17.94956 | 125 ft | 20 kts | 259° |
| 2026-05-07 18:19 | 59.65703 | 17.94649 | 122 ft | 20 kts | 256° |
| 2026-05-07 18:20 | 59.65680 | 17.94472 | 125 ft | 11 kts | 256° |
| 2026-05-07 18:20 | 59.65662 | 17.94335 | 126 ft | 10 kts | 256° |
| 2026-05-07 18:20 | 59.65645 | 17.94199 | 120 ft | 11 kts | 256° |
| 2026-05-07 18:20 | 59.65625 | 17.94041 | 119 ft | 14 kts | 256° |
| 2026-05-07 18:21 | 59.65600 | 17.93841 | 113 ft | 18 kts | 256° |
| 2026-05-07 18:21 | 59.65572 | 17.93625 | 112 ft | 17 kts | 256° |
| 2026-05-07 18:21 | 59.65550 | 17.93448 | 112 ft | 10 kts | 256° |
| 2026-05-07 18:21 | 59.65545 | 17.93408 | 111 ft | 4 kts | 254° |
| 2026-05-07 18:22 | 59.65529 | 17.93293 | 111 ft | 12 kts | 252° |
| 2026-05-07 18:22 | 59.65494 | 17.93228 | 112 ft | 10 kts | 209° |
| 2026-05-07 18:22 | 59.65436 | 17.93107 | 112 ft | 9 kts | 250° |
| 2026-05-07 18:22 | 59.65421 | 17.93000 | 112 ft | 8 kts | 253° |
| 2026-05-07 18:23 | 59.65401 | 17.92904 | 112 ft | 7 kts | 244° |
| 2026-05-07 18:23 | 59.65384 | 17.92820 | 110 ft | 6 kts | 250° |
| 2026-05-07 18:23 | 59.65370 | 17.92751 | 111 ft | 6 kts | 243° |
| 2026-05-07 18:23 | 59.65337 | 17.92734 | 112 ft | 8 kts | 164° |
| 2026-05-07 18:24 | 59.65315 | 17.92755 | 112 ft | 0 kts | 152° |
| 2026-05-07 18:24 | 59.65315 | 17.92756 | 112 ft | 1 kts | 152° |
| 2026-05-07 18:24 | 59.65282 | 17.92790 | 112 ft | 2 kts | 152° |
| 2026-05-07 18:24 | 59.65266 | 17.92839 | 112 ft | 5 kts | 94° |
| 2026-05-07 18:25 | 59.65278 | 17.92899 | 112 ft | 4 kts | 66° |
| 2026-05-07 18:25 | 59.65287 | 17.92946 | 112 ft | 3 kts | 71° |
| 2026-05-07 18:25 | 59.65290 | 17.92963 | 110 ft | 0 kts | 70° |